AirNav  
 
 1331 users online  

T37 Goldthwaite Municipal Airport
Goldthwaite, Texas, USA

GOING TO GOLDTHWAITE?


FAA INFORMATION EFFECTIVE 22 APRIL 2021

Location

FAA Identifier: T37
Lat/Long: 31-25-44.6400N 098-36-30.0800W
31-25.744000N 098-36.501333W
31.4290667,-98.6083556
(estimated)
Elevation: 1457.6 ft. / 444.3 m (surveyed)
From city: 2 miles SW of GOLDTHWAITE, TX
Time zone: UTC -5 (UTC -6 during Standard Time)
Zip code: 76844

Airport Operations

Airport use: Open to the public
Activation date: 08/2010
Control tower: no
ARTCC: FORT WORTH CENTER
FSS: FORT WORTH FLIGHT SERVICE STATION
NOTAMs facility: FTW (NOTAM-D service available)
Attendance: 0800-1700
Wind indicator: lighted
Segmented circle: yes
Lights: PAPI RWY 01 & 19 OPR CONSLY.

Airport Communications

CTAF: 122.9
WX AWOS-3P at 81R (13 nm SW): 120.525 (325-372-6027)

Nearby radio navigation aids

VOR radial/distance  VOR name  Freq  Var
AGJr296/28.0GOOCH SPRINGS VORTAC112.5005E
BWDr139/33.0BROWNWOOD VOR/DME108.6008E
LLOr006/39.1LLANO VORTAC108.2008E

Airport Services

Parking: hangars

Runway Information

Runway 1/19

Dimensions: 3200 x 60 ft. / 975 x 18 m
Surface: asphalt, in good condition
Weight bearing capacity: 
Single wheel: 12.5
RUNWAY 1  RUNWAY 19
Latitude: 31-25.485000N31-26.002833N
Longitude: 098-36.560833W098-36.442000W
Elevation: 1445.7 ft.1457.6 ft.
Traffic pattern: leftleft
Markings: basic, in fair conditionbasic, in fair condition
Visual slope indicator: 2-light PAPI on left (3.00 degrees glide path)2-light PAPI on left (3.00 degrees glide path)
Touchdown point: yes, no lightsyes, no lights
Obstructions: 3 ft. fence, 200 ft. from runway, 91 ft. left of centerline
3 FT FENCE 0-200 FT FM THR, 91 FT L.
50 ft. tree, 1133 ft. from runway, 32 ft. left of centerline, 18:1 slope to clear

Airport Ownership and Management from official FAA records

Ownership: Publicly-owned
Owner: CITY OF GOLDTHWAITE
PO BOX 450
GOLDTHWAITE, TX 76844-0450
Phone 325-648-3186
Manager: ROBERT LINDSEY
PO BOX 450
GOLDTHWAITE, TX 76844-0450
Phone 325-648-3186
CITY MGR

Airport Operational Statistics

Aircraft based on the field: 9
Single engine airplanes: 9
    
Aircraft operations: avg 52/week *
67% local general aviation
33% transient general aviation
* for 12-month period ending 13 September 2017

Additional Remarks

RWY 01 HAS 4 FT FENCE AND ISOLD + 18 FT TREES 400-475 FT FM THR ACRS APCH.
DEER ON & INVOF ARPT.
FOR CD CTC FORT WORTH ARTCC AT 817-858-7584.

Instrument Procedures

There are no published instrument procedures at T37.

Some nearby airports with instrument procedures:

KMNZ - Hamilton Municipal Airport (27 nm NE)
KBWD - Brownwood Regional Airport (28 nm NW)
KLZZ - Lampasas Airport (29 nm SE)
KMKN - Comanche County-City Airport (29 nm N)
KAQO - Llano Municipal Airport (39 nm S)
 
Loc | Ops | Rwys | IFR | FBO | Links
Com | Nav | Svcs | Stats | Notes
Aerial photo
WARNING: Photo may not be current or correct
Aerial photo of T37 (Goldthwaite Municipal Airport)
Photo taken 20-Sep-2010

Do you have a better or more recent aerial photo of Goldthwaite Municipal Airport that you would like to share? If so, please send us your photo.

 
Sectional chart

 
Airport distance calculator
Flying to Goldthwaite Municipal Airport? Find the distance to fly.

From to T37

Sunrise and sunset
Times for 22-Apr-2021
 Local
(UTC-5)
 Zulu
(UTC)
Morning civil twilight06:3411:34
Sunrise06:5911:59
Sunset20:0701:07
Evening civil twilight20:3201:32

Current date and time
Zulu (UTC)  22-Apr-2021 13:51:02
Local (UTC-5)  22-Apr-2021 08:51:02
 
METAR
KMNZ 
27nm NE 
221335Z AUTO 12006KT 10SM SCT045 OVC060 10/03 A3017 RMK AO2 T01010026
KBWD 
28nm NW 
221315Z AUTO 12011KT 10SM FEW043 BKN050 OVC070 10/00 A3014 RMK AO1
KLZZ 
29nm SE 
221335Z AUTO 12005KT 10SM BKN043 OVC060 09/02 A3015 RMK AO2 T00910022
KMKN 
29nm N 
221335Z AUTO 11006KT 10SM BKN050 OVC075 09/03 A3016 RMK AO2 T00930034
KAQO 
39nm S 
221335Z AUTO 08008KT 10SM OVC043 11/02 A3013 RMK AO2
KBBD 
40nm W 
221335Z AUTO 11010KT 10SM OVC047 09/01 A3010 RMK AO2
KGOP 
42nm E 
221335Z AUTO 11004KT 10SM FEW060 10/03 A3019 RMK AO2
KGRK 
45nm SE 
221256Z AUTO 10007KT 10SM OVC048 10/01 A3015 RMK AO2 SLP210 T01000014
KBMQ 
46nm SE 
221253Z AUTO 09008KT 10SM BKN048 OVC075 10/01 A3015 RMK AO2 SLP207 T01000011
KCOM 
48nm NW 
221335Z AUTO 12009KT 10SM BKN039 OVC050 11/00 A3013 RMK AO2 T01051002
TAF
KBBD 
40nm W 
221120Z 2212/2312 10006KT P6SM SCT050 FM221300 11011KT P6SM OVC025 FM221800 13011KT P6SM OVC015 FM222300 13011KT P6SM OVC007
KGRK 
45nm SE 
220800Z 2208/2314 VRB06KT 9999 BKN050 QNH3009INS BECMG 2214/2215 13012G18KT 9999 BKN030 QNH3001INS BECMG 2302/2303 16009KT 9999 BKN015 QNH2998INS BECMG 2306/2307 16006KT 8000 BR OVC009 QNH2999INS TX22/2218Z TN06/2211Z
NOTAMs
Click for the latest NOTAMs
NOTAMs are issued by the DoD/FAA and will open in a separate window not controlled by AirNav.

 

 
 

Would you like to see your business listed on this page?

 If your business provides an interesting product or service to pilots, flight crews, aircraft, or users of the Goldthwaite Municipal Airport, you should consider listing it here.  To start the listing process, click on the button below
 
Add a business
 

Other Pages about Goldthwaite Municipal Airport

Update a link
 
Copyright © AirNav, LLC. All rights reserved. Privacy Policy  Contact